15CA weather

Stanford University Hospital Center Heliport
Palo Alto, California, United States

Public forecast

Using degrees Fahrenheit for public forecast. Weather courtesy of forecast.io.

METAR (pilot weather report)

Closest report is Palo Alto Airport of Santa Clara County, 3.2 nm (6.0 km) ENE. Retrieved 2019/06/24 16:05 UTC (32 minutes ago):

KPAO 241605Z VRB04KT 10SM SCT009 BKN120 17/14 A2990

TAF (pilot weather forecast)

Closest forecast is Norman Y. Mineta San Jose International Airport, 12.5 nm (23.2 km) ESE. Retrieved 2019/06/24 12:24 UTC (4 hours ago):

TAF KSJC 241121Z 2412/2512 15006KT P6SM FEW012 FEW200 FM241600 VRB05KT P6SM FEW010 FEW200 FM242000 31011KT P6SM FEW200 FM250400 30007KT P6SM SCT200 FM250900 16005KT P6SM FEW015 SCT200